createdAt,value
2023-05-04T00:00:21.091Z,102240.50
2023-05-04T00:02:48.914Z,102249.44
2023-05-04T00:05:16.502Z,102255.94
2023-05-04T00:07:44.298Z,102259.06
2023-05-04T00:10:11.665Z,102262.16
2023-05-04T00:12:40.712Z,102261.31
2023-05-04T00:15:08.438Z,102267.53
2023-05-04T00:17:35.914Z,102272.63
2023-05-04T00:20:04.373Z,102268.25
2023-05-04T00:22:32.824Z,102263.03
2023-05-04T00:25:00.130Z,102263.59
2023-05-04T00:27:27.819Z,102263.84
2023-05-04T00:29:55.183Z,102262.44
2023-05-04T00:32:22.633Z,102262.72
2023-05-04T00:34:50.203Z,102258.19
2023-05-04T00:37:17.590Z,102253.09
2023-05-04T00:39:44.945Z,102254.66
2023-05-04T00:42:12.354Z,102243.91
2023-05-04T00:44:41.617Z,102257.78
2023-05-04T00:47:09.614Z,102259.03
2023-05-04T00:49:37.376Z,102255.09
2023-05-04T00:52:05.961Z,102255.66
2023-05-04T00:54:34.505Z,102263.84
2023-05-04T00:57:03.559Z,102259.91
2023-05-04T00:59:31.053Z,102255.09
2023-05-04T01:01:58.474Z,102252.94
2023-05-04T01:04:26.162Z,102241.22
2023-05-04T01:07:14.829Z,102258.47
2023-05-04T01:09:59.651Z,102249.56
2023-05-04T01:12:44.823Z,102262.56
2023-05-04T01:15:13.113Z,102258.63
2023-05-04T01:17:40.745Z,102251.13
2023-05-04T01:20:09.611Z,102260.47
2023-05-04T01:22:38.842Z,102256.94
2023-05-04T01:25:07.975Z,102247.72
2023-05-04T01:27:46.495Z,102252.00
2023-05-04T01:30:39.471Z,102260.47
2023-05-04T01:33:07.395Z,102250.84
2023-05-04T01:35:34.995Z,102250.84
2023-05-04T01:38:03.124Z,102261.91
2023-05-04T01:40:30.573Z,102250.69
2023-05-04T01:42:57.993Z,102250.56
2023-05-04T01:45:25.393Z,102242.06
2023-05-04T01:47:52.882Z,102248.03
2023-05-04T01:50:20.296Z,102242.91
2023-05-04T01:52:47.617Z,102253.81
2023-05-04T01:55:14.958Z,102248.59
2023-05-04T01:57:42.465Z,102259.44
2023-05-04T02:00:10.458Z,102255.38
2023-05-04T02:02:38.112Z,102250.72
2023-05-04T02:05:05.835Z,102265.53
2023-05-04T02:07:34.300Z,102264.41
2023-05-04T02:10:01.877Z,102250.13
2023-05-04T02:12:29.650Z,102248.13
2023-05-04T02:14:57.188Z,102240.66
2023-05-04T02:17:24.672Z,102242.88
2023-05-04T02:19:52.226Z,102235.97
2023-05-04T02:22:19.689Z,102240.06
2023-05-04T02:24:47.043Z,102236.63
2023-05-04T02:27:14.493Z,102232.06
2023-05-04T02:29:42.045Z,102242.84
2023-05-04T02:32:09.440Z,102238.03
2023-05-04T02:34:37.175Z,102238.53
2023-05-04T02:37:07.100Z,102239.75
2023-05-04T02:39:34.961Z,102237.50
2023-05-04T02:42:03.151Z,102231.69
2023-05-04T02:44:30.576Z,102230.13
2023-05-04T02:46:58.287Z,102227.31
2023-05-04T02:49:25.710Z,102225.34
2023-05-04T02:51:53.150Z,102217.06
2023-05-04T02:54:20.539Z,102231.13
2023-05-04T02:56:48.002Z,102228.03
2023-05-04T02:59:15.468Z,102226.88
2023-05-04T03:01:42.921Z,102223.13
2023-05-04T03:04:10.355Z,102222.28
2023-05-04T03:06:38.217Z,102213.31
2023-05-04T03:09:05.714Z,102203.34
2023-05-04T03:11:33.079Z,102202.31
2023-05-04T03:14:01.176Z,102197.50
2023-05-04T03:16:28.777Z,102201.47
2023-05-04T03:18:59.183Z,102204.88
2023-05-04T03:21:26.618Z,102202.06
2023-05-04T03:23:53.957Z,102203.50
2023-05-04T03:26:21.612Z,102203.75
2023-05-04T03:28:48.978Z,102194.09
2023-05-04T03:31:16.376Z,102199.31
2023-05-04T03:33:43.816Z,102192.97
2023-05-04T03:36:11.615Z,102196.22
2023-05-04T03:38:39.270Z,102202.00
2023-05-04T03:41:07.658Z,102205.84
2023-05-04T03:43:35.867Z,102208.97
2023-05-04T03:46:03.266Z,102204.88
2023-05-04T03:48:30.775Z,102198.38
2023-05-04T03:50:58.209Z,102202.44
2023-05-04T03:53:25.944Z,102202.44
2023-05-04T03:55:53.490Z,102200.88
2023-05-04T03:58:21.277Z,102190.97
2023-05-04T04:00:48.670Z,102195.50
2023-05-04T04:03:16.297Z,102199.97
2023-05-04T04:05:44.080Z,102204.66
2023-05-04T04:08:11.645Z,102200.63
2023-05-04T04:10:39.019Z,102202.88
2023-05-04T04:13:06.511Z,102189.28
2023-05-04T04:15:33.988Z,102194.56
2023-05-04T04:18:01.517Z,102199.50
2023-05-04T04:20:28.922Z,102192.63
2023-05-04T04:22:56.467Z,102197.78
2023-05-04T04:25:24.538Z,102198.63
2023-05-04T04:27:52.594Z,102198.41
2023-05-04T04:30:20.042Z,102204.72
2023-05-04T04:32:47.791Z,102204.25
2023-05-04T04:35:15.763Z,102206.81
2023-05-04T04:37:43.159Z,102203.38
2023-05-04T04:40:11.258Z,102202.13
2023-05-04T04:42:38.711Z,102208.75
2023-05-04T04:45:06.931Z,102204.34
2023-05-04T04:47:34.657Z,102206.63
2023-05-04T04:50:03.674Z,102205.28
2023-05-04T04:52:33.374Z,102206.56
2023-05-04T04:55:01.443Z,102208.25
2023-05-04T04:57:31.177Z,102201.88
2023-05-04T04:59:59.211Z,102196.91
2023-05-04T05:02:28.405Z,102202.94
2023-05-04T05:04:56.827Z,102199.38
2023-05-04T05:07:24.268Z,102192.00
2023-05-04T05:09:51.907Z,102205.19
2023-05-04T05:12:19.269Z,102202.53
2023-05-04T05:14:47.397Z,102215.91
2023-05-04T05:17:14.795Z,102214.41
2023-05-04T05:19:42.367Z,102216.84
2023-05-04T05:22:10.066Z,102227.84
2023-05-04T05:24:37.683Z,102217.75
2023-05-04T05:27:05.022Z,102221.28
2023-05-04T05:29:32.640Z,102227.22
2023-05-04T05:31:59.971Z,102222.97
2023-05-04T05:34:27.394Z,102225.41
2023-05-04T05:36:54.778Z,102215.41
2023-05-04T05:39:22.101Z,102224.88
2023-05-04T05:41:49.437Z,102226.44
2023-05-04T05:44:16.787Z,102232.19
2023-05-04T05:46:44.270Z,102222.03
2023-05-04T05:49:11.614Z,102227.28
2023-05-04T05:51:39.003Z,102233.53
2023-05-04T05:54:06.729Z,102233.00
2023-05-04T05:56:34.627Z,102234.16
2023-05-04T05:59:02.331Z,102230.13
2023-05-04T06:01:29.888Z,102242.97
2023-05-04T06:03:57.369Z,102243.81
2023-05-04T06:06:24.914Z,102249.69
2023-05-04T06:08:52.367Z,102238.78
2023-05-04T06:11:21.568Z,102242.81
2023-05-04T06:13:48.983Z,102237.97
2023-05-04T06:16:16.436Z,102244.63
2023-05-04T06:18:43.879Z,102234.75
2023-05-04T06:21:11.547Z,102238.28
2023-05-04T06:23:39.075Z,102233.84
2023-05-04T06:26:07.937Z,102235.09
2023-05-04T06:28:35.580Z,102247.19
2023-05-04T06:31:03.868Z,102245.44
2023-05-04T06:33:31.599Z,102243.38
2023-05-04T06:35:59.032Z,102242.13
2023-05-04T06:38:26.524Z,102239.25
2023-05-04T06:40:54.180Z,102238.19
2023-05-04T06:43:21.605Z,102230.63
2023-05-04T06:45:49.084Z,102226.50
2023-05-04T06:48:17.177Z,102230.50
2023-05-04T06:50:45.464Z,102224.13
2023-05-04T06:53:13.044Z,102228.19
2023-05-04T06:55:40.408Z,102225.75
2023-05-04T06:58:07.903Z,102223.84
2023-05-04T07:00:35.556Z,102229.16
2023-05-04T07:03:03.072Z,102219.19
2023-05-04T07:05:34.202Z,102219.25
2023-05-04T07:08:01.995Z,102217.47
2023-05-04T07:10:30.118Z,102210.34
2023-05-04T07:12:57.601Z,102215.94
2023-05-04T07:15:25.146Z,102223.09
2023-05-04T07:17:52.578Z,102221.16
2023-05-04T07:20:24.324Z,102219.69
2023-05-04T07:22:56.564Z,102218.28
2023-05-04T07:25:28.098Z,102219.78
2023-05-04T07:27:55.631Z,102213.28
2023-05-04T07:30:23.026Z,102206.56
2023-05-04T07:32:50.709Z,102209.91
2023-05-04T07:35:18.210Z,102213.41
2023-05-04T07:37:46.486Z,102216.00
2023-05-04T07:40:17.098Z,102207.91
2023-05-04T07:42:44.707Z,102214.66
2023-05-04T07:45:12.216Z,102203.00
2023-05-04T07:47:39.693Z,102203.47
2023-05-04T07:50:08.248Z,102196.84
2023-05-04T07:52:36.185Z,102187.44
2023-05-04T07:55:03.882Z,102203.22
2023-05-04T07:57:32.467Z,102196.25
2023-05-04T07:59:59.889Z,102197.75
2023-05-04T08:02:27.327Z,102201.50
2023-05-04T08:04:54.925Z,102201.94
2023-05-04T08:07:22.802Z,102197.75
2023-05-04T08:09:50.395Z,102204.63
2023-05-04T08:12:17.853Z,102206.91
2023-05-04T08:14:47.218Z,102198.13
2023-05-04T08:17:14.664Z,102205.38
2023-05-04T08:19:42.043Z,102200.97
2023-05-04T08:22:09.570Z,102203.16
2023-05-04T08:24:37.722Z,102201.94
2023-05-04T08:27:08.704Z,102195.03
2023-05-04T08:29:37.804Z,102196.28
2023-05-04T08:32:06.176Z,102194.97
2023-05-04T08:34:34.205Z,102200.44
2023-05-04T08:37:02.484Z,102195.41
2023-05-04T08:39:30.648Z,102185.59
2023-05-04T08:41:58.257Z,102189.97
2023-05-04T08:44:26.409Z,102193.31
2023-05-04T08:46:55.067Z,102188.44
2023-05-04T08:49:24.106Z,102183.44
2023-05-04T08:51:52.163Z,102178.47
2023-05-04T08:54:21.631Z,102171.28
2023-05-04T08:56:52.761Z,102177.97
2023-05-04T08:59:22.309Z,102173.78
2023-05-04T09:01:53.141Z,102181.03
2023-05-04T09:04:21.036Z,102171.66
2023-05-04T09:06:49.142Z,102173.56
2023-05-04T09:09:17.047Z,102168.59
2023-05-04T09:11:44.627Z,102166.41
2023-05-04T09:14:11.942Z,102163.00
2023-05-04T09:16:39.604Z,102163.16
2023-05-04T09:19:18.680Z,102157.06
2023-05-04T09:21:47.341Z,102159.16
2023-05-04T09:24:25.771Z,102151.94
2023-05-04T09:26:53.293Z,102152.44
2023-05-04T09:29:22.353Z,102146.59
2023-05-04T09:31:51.362Z,102148.66
2023-05-04T09:34:22.493Z,102141.59
2023-05-04T09:37:01.870Z,102142.91
2023-05-04T09:39:30.592Z,102138.13
2023-05-04T09:41:58.157Z,102134.59
2023-05-04T09:44:29.515Z,102136.16
2023-05-04T09:47:00.210Z,102134.19
2023-05-04T09:49:34.975Z,102135.31
2023-05-04T09:52:05.127Z,102127.78
2023-05-04T09:54:36.415Z,102129.81
2023-05-04T09:57:13.297Z,102125.25
2023-05-04T09:59:42.881Z,102127.16
2023-05-04T10:02:21.904Z,102121.44
2023-05-04T10:04:52.353Z,102121.81
2023-05-04T10:07:21.185Z,102121.84
2023-05-04T10:09:49.947Z,102112.56
2023-05-04T10:12:17.959Z,102121.41
2023-05-04T10:14:47.270Z,102117.81
2023-05-04T10:17:15.232Z,102121.84
2023-05-04T10:20:04.984Z,102118.25
2023-05-04T10:22:33.091Z,102117.78
2023-05-04T10:25:37.739Z,102113.88
2023-05-04T10:28:20.686Z,102115.03
2023-05-04T10:30:48.222Z,102114.81
2023-05-04T10:33:15.668Z,102119.22
2023-05-04T10:35:53.534Z,102113.28
2023-05-04T10:38:33.274Z,102112.91
2023-05-04T10:41:01.749Z,102114.47
2023-05-04T10:43:29.410Z,102108.13
2023-05-04T10:45:57.787Z,102102.50
2023-05-04T10:48:35.353Z,102094.84
2023-05-04T10:51:02.820Z,102092.41
2023-05-04T10:53:34.665Z,102081.34
2023-05-04T10:56:02.136Z,102084.38
2023-05-04T10:58:30.128Z,102080.00
2023-05-04T11:00:57.677Z,102069.66
2023-05-04T11:03:25.391Z,102071.75
2023-05-04T11:05:54.876Z,102067.78
2023-05-04T11:08:24.730Z,102060.97
2023-05-04T11:11:06.981Z,102054.84
2023-05-04T11:13:36.074Z,102063.56
2023-05-04T11:16:03.671Z,102055.09
2023-05-04T11:18:34.588Z,102041.47
2023-05-04T11:21:02.633Z,102043.25
2023-05-04T11:23:30.700Z,102046.13
2023-05-04T11:25:58.204Z,102047.25
2023-05-04T11:28:38.629Z,102047.25
2023-05-04T11:31:13.849Z,102045.06
2023-05-04T11:33:47.180Z,102031.78
2023-05-04T11:36:14.948Z,102044.00
2023-05-04T11:38:42.976Z,102033.50
2023-05-04T11:41:10.484Z,102034.97
2023-05-04T11:43:39.040Z,102029.06
2023-05-04T11:46:07.855Z,102026.41
2023-05-04T11:48:36.376Z,102028.94
2023-05-04T11:51:05.578Z,102021.28
2023-05-04T11:53:40.171Z,102022.53
2023-05-04T11:56:11.345Z,102023.75
2023-05-04T11:58:38.810Z,102021.09
2023-05-04T12:01:06.185Z,102022.78
2023-05-04T12:03:52.237Z,102021.78
2023-05-04T12:06:32.311Z,102011.16
2023-05-04T12:09:04.996Z,102009.63
2023-05-04T12:11:32.992Z,102007.19
2023-05-04T12:14:17.167Z,102003.34
2023-05-04T12:16:54.957Z,101999.44
2023-05-04T12:19:22.340Z,101996.16
2023-05-04T12:21:52.333Z,101994.75
2023-05-04T12:24:24.209Z,101985.94
2023-05-04T12:26:51.736Z,101982.31
2023-05-04T12:29:19.532Z,101980.28
2023-05-04T12:31:47.457Z,101966.47
2023-05-04T12:34:14.910Z,101958.78
2023-05-04T12:36:42.451Z,101957.09
2023-05-04T12:39:09.880Z,101950.47
2023-05-04T12:41:37.663Z,101957.41
2023-05-04T12:44:05.187Z,101961.66
2023-05-04T12:46:33.344Z,101952.34
2023-05-04T12:49:00.841Z,101950.28
2023-05-04T12:51:28.411Z,101945.66
2023-05-04T12:53:57.876Z,101944.31
2023-05-04T12:56:25.870Z,101941.78
2023-05-04T12:58:53.360Z,101930.16
2023-05-04T13:01:20.959Z,101931.31
2023-05-04T13:03:48.452Z,101930.44
2023-05-04T13:06:16.061Z,101927.94
2023-05-04T13:08:44.568Z,101934.03
2023-05-04T13:11:11.930Z,101924.81
2023-05-04T13:13:39.288Z,101922.50
2023-05-04T13:16:06.817Z,101919.31
2023-05-04T13:18:34.262Z,101919.53
2023-05-04T13:21:01.786Z,101912.00
2023-05-04T13:23:29.478Z,101909.31
2023-05-04T13:25:57.125Z,101906.44
2023-05-04T13:28:24.531Z,101902.78
2023-05-04T13:30:52.252Z,101898.22
2023-05-04T13:33:29.491Z,101896.19
2023-05-04T13:36:02.205Z,101889.06
2023-05-04T13:38:29.755Z,101884.22
2023-05-04T13:40:58.725Z,101878.91
2023-05-04T13:43:26.169Z,101871.63
2023-05-04T13:45:53.750Z,101871.72
2023-05-04T13:48:21.159Z,101870.88
2023-05-04T13:50:48.829Z,101867.81
2023-05-04T13:53:16.568Z,101862.28
2023-05-04T13:55:44.952Z,101860.41
2023-05-04T13:58:12.311Z,101858.28
2023-05-04T14:00:39.795Z,101848.41
2023-05-04T14:03:07.263Z,101853.97
2023-05-04T14:05:35.721Z,101846.75
2023-05-04T14:08:03.163Z,101851.31
2023-05-04T14:10:30.920Z,101833.06
2023-05-04T14:12:59.078Z,101842.91
2023-05-04T14:15:27.640Z,101833.09
2023-05-04T14:17:55.154Z,101831.66
2023-05-04T14:20:22.561Z,101824.97
2023-05-04T14:22:49.989Z,101821.75
2023-05-04T14:25:17.310Z,101823.59
2023-05-04T14:27:45.325Z,101819.25
2023-05-04T14:30:13.078Z,101812.16
2023-05-04T14:32:41.531Z,101807.38
2023-05-04T14:35:10.909Z,101806.59
2023-05-04T14:37:40.076Z,101803.25
2023-05-04T14:40:09.833Z,101798.50
2023-05-04T14:42:38.624Z,101797.72
2023-05-04T14:45:08.214Z,101793.66
2023-05-04T14:47:36.111Z,101791.41
2023-05-04T14:50:05.131Z,101788.91
2023-05-04T14:52:33.256Z,101792.50
2023-05-04T14:55:00.775Z,101786.16
2023-05-04T14:57:28.498Z,101784.81
2023-05-04T14:59:55.926Z,101783.41
2023-05-04T15:02:23.477Z,101780.19
2023-05-04T15:04:51.036Z,101786.75
2023-05-04T15:07:20.939Z,101777.34
2023-05-04T15:09:48.784Z,101773.16
2023-05-04T15:12:17.692Z,101778.66
2023-05-04T15:14:46.361Z,101776.34
2023-05-04T15:17:15.061Z,101775.97
2023-05-04T15:19:43.725Z,101771.78
2023-05-04T15:22:11.287Z,101771.66
2023-05-04T15:24:38.730Z,101765.66
2023-05-04T15:27:06.296Z,101771.91
2023-05-04T15:29:33.784Z,101766.75
2023-05-04T15:32:01.319Z,101766.25
2023-05-04T15:34:29.375Z,101761.56
2023-05-04T15:36:57.029Z,101750.97
2023-05-04T15:39:24.476Z,101755.44
2023-05-04T15:41:52.058Z,101753.47
2023-05-04T15:44:21.103Z,101753.69
2023-05-04T15:46:48.688Z,101758.41
2023-05-04T15:49:16.094Z,101757.13
2023-05-04T15:51:43.616Z,101751.88
2023-05-04T15:54:11.091Z,101750.25
2023-05-04T15:56:38.745Z,101761.88
2023-05-04T15:59:06.663Z,101759.38
2023-05-04T16:01:34.625Z,101765.78
2023-05-04T16:04:02.245Z,101758.78
2023-05-04T16:06:31.454Z,101766.00
2023-05-04T16:08:58.914Z,101763.91
2023-05-04T16:11:26.456Z,101756.13
2023-05-04T16:13:54.437Z,101758.28
2023-05-04T16:16:22.041Z,101750.00
2023-05-04T16:18:49.451Z,101744.22
2023-05-04T16:21:16.869Z,101750.66
2023-05-04T16:23:44.261Z,101751.84
2023-05-04T16:26:11.710Z,101749.28
2023-05-04T16:28:40.669Z,101758.13
2023-05-04T16:31:10.357Z,101752.63
2023-05-04T16:33:39.294Z,101755.88
2023-05-04T16:36:07.114Z,101761.81
2023-05-04T16:38:34.978Z,101759.69
2023-05-04T16:41:02.473Z,101757.00
2023-05-04T16:43:30.014Z,101752.66
2023-05-04T16:45:57.764Z,101754.34
2023-05-04T16:48:25.543Z,101750.94
2023-05-04T16:50:52.844Z,101754.75
2023-05-04T16:53:20.981Z,101766.13
2023-05-04T16:55:48.491Z,101766.97
2023-05-04T16:58:15.972Z,101771.13
2023-05-04T17:00:43.600Z,101769.88
2023-05-04T17:03:11.099Z,101777.91
2023-05-04T17:05:38.835Z,101775.41
2023-05-04T17:08:06.325Z,101782.91
2023-05-04T17:10:33.778Z,101779.97
2023-05-04T17:13:02.571Z,101784.38
2023-05-04T17:15:30.569Z,101787.09
2023-05-04T17:17:58.015Z,101792.13
2023-05-04T17:20:30.081Z,101792.13
2023-05-04T17:22:58.807Z,101795.47
2023-05-04T17:25:27.020Z,101795.22
2023-05-04T17:27:55.001Z,101802.53
2023-05-04T17:30:22.498Z,101794.97
2023-05-04T17:32:50.135Z,101799.16
2023-05-04T17:35:25.445Z,101801.25
2023-05-04T17:37:58.782Z,101798.78
2023-05-04T17:40:27.937Z,101801.25
2023-05-04T17:42:56.551Z,101804.41
2023-05-04T17:45:24.203Z,101799.84
2023-05-04T17:47:52.563Z,101802.31
2023-05-04T17:50:21.303Z,101806.03
2023-05-04T17:52:53.802Z,101808.31
2023-05-04T17:55:24.464Z,101812.75
2023-05-04T17:57:53.883Z,101812.03
2023-05-04T18:00:21.884Z,101810.94
2023-05-04T18:02:49.611Z,101802.78
2023-05-04T18:05:17.033Z,101812.56
2023-05-04T18:07:44.726Z,101811.59
2023-05-04T18:10:12.192Z,101810.34
2023-05-04T18:12:40.018Z,101810.03
2023-05-04T18:15:09.170Z,101808.25
2023-05-04T18:17:38.307Z,101803.75
2023-05-04T18:20:08.361Z,101802.97
2023-05-04T18:22:37.379Z,101802.56
2023-05-04T18:25:05.177Z,101800.28
2023-05-04T18:27:34.057Z,101811.53
2023-05-04T18:30:03.447Z,101803.41
2023-05-04T18:32:31.340Z,101803.19
2023-05-04T18:34:58.855Z,101801.88
2023-05-04T18:37:26.744Z,101802.66
2023-05-04T18:39:54.436Z,101808.47
2023-05-04T18:42:21.936Z,101803.56
2023-05-04T18:44:51.640Z,101799.63
2023-05-04T18:47:19.050Z,101797.56
2023-05-04T18:49:53.185Z,101796.91
2023-05-04T18:52:21.676Z,101795.50
2023-05-04T18:54:49.741Z,101791.75
2023-05-04T18:57:17.382Z,101796.53
2023-05-04T18:59:44.815Z,101795.31
2023-05-04T19:02:12.740Z,101799.78
2023-05-04T19:04:40.281Z,101802.31
2023-05-04T19:07:09.937Z,101802.50
2023-05-04T19:09:37.615Z,101805.97
2023-05-04T19:12:05.281Z,101805.47
2023-05-04T19:14:33.734Z,101803.41
2023-05-04T19:17:02.419Z,101800.22
2023-05-04T19:19:30.612Z,101808.03
2023-05-04T19:21:58.696Z,101805.75
2023-05-04T19:24:26.067Z,101801.56
2023-05-04T19:26:53.573Z,101803.19
2023-05-04T19:29:20.900Z,101803.19
2023-05-04T19:31:48.506Z,101808.13
2023-05-04T19:34:17.670Z,101808.91
2023-05-04T19:36:45.449Z,101801.81
2023-05-04T19:39:13.505Z,101807.25
2023-05-04T19:41:41.027Z,101799.00
2023-05-04T19:44:10.296Z,101791.63
2023-05-04T19:46:38.063Z,101793.97
2023-05-04T19:49:05.525Z,101793.22
2023-05-04T19:51:33.122Z,101797.97
2023-05-04T19:54:00.680Z,101788.91
2023-05-04T19:56:28.257Z,101788.50
2023-05-04T19:58:55.891Z,101784.56
2023-05-04T20:01:23.331Z,101780.38
2023-05-04T20:03:50.917Z,101785.03
2023-05-04T20:06:18.409Z,101788.69
2023-05-04T20:08:46.049Z,101781.09
2023-05-04T20:11:13.994Z,101784.28
2023-05-04T20:13:42.858Z,101785.38
2023-05-04T20:16:10.461Z,101784.44
2023-05-04T20:18:38.171Z,101788.00
2023-05-04T20:21:05.886Z,101782.56
2023-05-04T20:23:33.764Z,101786.97
2023-05-04T20:26:02.176Z,101784.28
2023-05-04T20:28:32.688Z,101782.31
2023-05-04T20:31:00.510Z,101787.72
2023-05-04T20:33:28.111Z,101783.03
2023-05-04T20:35:55.615Z,101793.38
2023-05-04T20:38:23.256Z,101791.22
2023-05-04T20:40:52.479Z,101795.91
2023-05-04T20:43:21.907Z,101795.59
2023-05-04T20:45:49.730Z,101795.53
2023-05-04T20:48:17.477Z,101798.31
2023-05-04T20:50:44.932Z,101801.81
2023-05-04T20:53:12.768Z,101798.06
2023-05-04T20:55:40.677Z,101801.81
2023-05-04T20:58:08.431Z,101798.63
2023-05-04T21:00:36.495Z,101788.34
2023-05-04T21:03:04.461Z,101791.06
2023-05-04T21:05:32.187Z,101781.59
2023-05-04T21:08:01.166Z,101787.84
2023-05-04T21:10:28.689Z,101793.31
2023-05-04T21:12:57.645Z,101793.03
2023-05-04T21:15:25.006Z,101786.06
2023-05-04T21:17:53.328Z,101780.16
2023-05-04T21:20:21.207Z,101780.75
2023-05-04T21:22:48.756Z,101781.47
2023-05-04T21:25:16.169Z,101785.91
2023-05-04T21:27:44.391Z,101783.28
2023-05-04T21:30:12.210Z,101782.16
2023-05-04T21:32:39.644Z,101775.91
2023-05-04T21:35:07.688Z,101777.41
2023-05-04T21:37:35.254Z,101769.94
2023-05-04T21:40:02.720Z,101757.78
2023-05-04T21:42:30.241Z,101765.72
2023-05-04T21:44:57.839Z,101757.19
2023-05-04T21:47:26.369Z,101746.84
2023-05-04T21:49:54.804Z,101752.00
2023-05-04T21:52:22.628Z,101751.53
2023-05-04T21:54:50.197Z,101742.88
2023-05-04T21:57:17.650Z,101745.13
2023-05-04T21:59:49.590Z,101747.91
2023-05-04T22:02:17.317Z,101745.53
2023-05-04T22:04:44.905Z,101747.91
2023-05-04T22:07:12.403Z,101747.25
2023-05-04T22:09:39.777Z,101747.31
2023-05-04T22:12:07.887Z,101750.63
2023-05-04T22:14:35.380Z,101743.38
2023-05-04T22:17:02.796Z,101741.41
2023-05-04T22:19:30.786Z,101739.06
2023-05-04T22:21:58.239Z,101736.69
2023-05-04T22:24:26.946Z,101726.03
2023-05-04T22:26:54.266Z,101722.66
2023-05-04T22:29:21.656Z,101722.66
2023-05-04T22:31:49.092Z,101718.41
2023-05-04T22:34:16.718Z,101718.09
2023-05-04T22:36:44.118Z,101714.25
2023-05-04T22:39:11.440Z,101705.78
2023-05-04T22:41:38.899Z,101710.56
2023-05-04T22:44:07.427Z,101707.56
2023-05-04T22:46:35.594Z,101708.41
2023-05-04T22:49:03.041Z,101700.09
2023-05-04T22:51:30.902Z,101692.22
2023-05-04T22:53:58.404Z,101685.28
2023-05-04T22:56:26.028Z,101688.56
2023-05-04T22:58:53.408Z,101690.56
2023-05-04T23:01:20.831Z,101686.19
2023-05-04T23:03:48.960Z,101686.38
2023-05-04T23:06:16.390Z,101672.03
2023-05-04T23:08:45.446Z,101671.41
2023-05-04T23:11:13.033Z,101670.78
2023-05-04T23:13:40.377Z,101672.81
2023-05-04T23:16:08.045Z,101679.66
2023-05-04T23:18:35.744Z,101676.81
2023-05-04T23:21:03.398Z,101666.41
2023-05-04T23:23:31.281Z,101665.75
2023-05-04T23:25:58.652Z,101663.25
2023-05-04T23:28:26.248Z,101665.41
2023-05-04T23:30:55.767Z,101657.28
2023-05-04T23:33:23.386Z,101648.06
2023-05-04T23:35:54.714Z,101641.44
2023-05-04T23:38:22.959Z,101645.81
2023-05-04T23:40:51.858Z,101648.34
2023-05-04T23:43:19.524Z,101635.03
2023-05-04T23:45:46.990Z,101632.16
2023-05-04T23:48:14.654Z,101630.63
2023-05-04T23:50:52.849Z,101631.38
2023-05-04T23:53:20.670Z,101622.28
2023-05-04T23:55:56.140Z,101621.25
2023-05-04T23:58:23.506Z,101624.47
